createdAt,value
2019-05-19T00:02:01.261Z,13.33
2019-05-19T00:04:32.334Z,13.03
2019-05-19T00:07:02.794Z,15.17
2019-05-19T00:09:33.648Z,13.13
2019-05-19T00:12:04.547Z,12.27
2019-05-19T00:14:38.102Z,13.50
2019-05-19T00:17:08.933Z,12.20
2019-05-19T00:19:40.337Z,13.13
2019-05-19T00:22:11.005Z,11.30
2019-05-19T00:24:42.076Z,13.30
2019-05-19T00:27:12.571Z,13.77
2019-05-19T00:29:43.456Z,12.53
2019-05-19T00:32:14.306Z,12.63
2019-05-19T00:34:46.067Z,14.53
2019-05-19T00:37:16.624Z,11.53
2019-05-19T00:39:47.336Z,12.57
2019-05-19T00:42:17.965Z,12.60
2019-05-19T00:44:48.677Z,12.53
2019-05-19T00:47:19.528Z,11.40
2019-05-19T00:49:50.215Z,13.20
2019-05-19T00:52:21.411Z,11.90
2019-05-19T00:54:52.352Z,13.23
2019-05-19T00:57:24.932Z,13.50
2019-05-19T00:59:56.696Z,11.77
2019-05-19T01:02:27.457Z,11.83
2019-05-19T01:04:58.137Z,13.47
2019-05-19T01:07:28.878Z,13.50
2019-05-19T01:09:59.931Z,14.50
2019-05-19T01:12:30.479Z,15.37
2019-05-19T01:15:01.224Z,14.73
2019-05-19T01:17:32.073Z,15.57
2019-05-19T01:20:02.950Z,18.37
2019-05-19T01:22:34.432Z,14.73
2019-05-19T01:25:06.113Z,16.10
2019-05-19T01:27:36.878Z,20.43
2019-05-19T01:30:09.928Z,15.93
2019-05-19T01:32:40.560Z,22.50
2019-05-19T01:35:11.568Z,16.07
2019-05-19T01:37:42.238Z,15.90
2019-05-19T01:40:13.628Z,15.63
2019-05-19T01:42:44.345Z,15.77
2019-05-19T01:45:16.574Z,15.60
2019-05-19T01:47:47.173Z,13.70
2019-05-19T01:50:18.791Z,13.67
2019-05-19T01:52:49.379Z,12.80
2019-05-19T01:55:20.092Z,12.37
2019-05-19T01:57:51.027Z,12.90
2019-05-19T02:00:22.036Z,12.50
2019-05-19T02:02:52.727Z,13.73
2019-05-19T02:05:23.424Z,12.70
2019-05-19T02:07:54.092Z,12.53
2019-05-19T02:10:25.200Z,13.70
2019-05-19T02:12:55.789Z,12.83
2019-05-19T02:15:26.620Z,12.63
2019-05-19T02:17:57.148Z,12.77
2019-05-19T02:20:33.248Z,12.87
2019-05-19T02:23:00.559Z,11.90
2019-05-19T02:25:31.305Z,13.87
2019-05-19T02:28:01.999Z,14.87
2019-05-19T02:30:32.744Z,13.30
2019-05-19T02:33:03.736Z,15.80
2019-05-19T02:35:35.442Z,17.10
2019-05-19T02:38:06.026Z,12.27
2019-05-19T02:40:40.755Z,13.43
2019-05-19T02:43:12.242Z,12.87
2019-05-19T02:45:44.049Z,12.97
2019-05-19T02:48:14.719Z,14.47
2019-05-19T02:50:52.467Z,15.20
2019-05-19T02:53:19.114Z,13.23
2019-05-19T02:55:50.527Z,13.47
2019-05-19T02:58:21.707Z,11.90
2019-05-19T03:00:53.391Z,12.63
2019-05-19T03:03:24.313Z,13.33
2019-05-19T03:05:55.183Z,13.23
2019-05-19T03:08:26.746Z,16.47
2019-05-19T03:10:57.869Z,14.03
2019-05-19T03:13:28.404Z,13.83
2019-05-19T03:15:59.234Z,14.27
2019-05-19T03:18:30.096Z,12.87
2019-05-19T03:21:10.526Z,13.03
2019-05-19T03:23:32.947Z,13.23
2019-05-19T03:26:03.870Z,15.87
2019-05-19T03:28:34.430Z,13.97
2019-05-19T03:31:15.749Z,19.45
2019-05-19T03:33:47.994Z,17.83
2019-05-19T03:36:19.706Z,15.80
2019-05-19T03:38:50.386Z,16.13
2019-05-19T03:41:21.295Z,14.90
2019-05-19T03:43:52.119Z,25.00
2019-05-19T03:46:22.956Z,22.83
2019-05-19T03:48:53.757Z,22.23
2019-05-19T03:51:31.044Z,27.50
2019-05-19T03:53:56.889Z,20.33
2019-05-19T03:56:27.850Z,24.37
2019-05-19T03:58:58.583Z,17.70
2019-05-19T04:01:29.927Z,19.50
2019-05-19T04:04:01.825Z,23.67
2019-05-19T04:06:50.667Z,21.70
2019-05-19T04:09:21.220Z,23.13
2019-05-19T04:11:52.054Z,21.20
2019-05-19T04:14:23.202Z,22.77
2019-05-19T04:16:54.564Z,20.93
2019-05-19T04:19:36.034Z,25.13
2019-05-19T04:22:07.799Z,20.93
2019-05-19T04:24:44.459Z,22.80
2019-05-19T04:27:15.817Z,22.73
2019-05-19T04:29:46.635Z,22.23
2019-05-19T04:32:17.343Z,17.80
2019-05-19T04:34:47.924Z,22.30
2019-05-19T04:37:18.475Z,23.17
2019-05-19T04:39:48.844Z,22.27
2019-05-19T04:42:19.428Z,22.73
2019-05-19T04:44:53.741Z,22.27
2019-05-19T04:47:24.650Z,20.63
2019-05-19T04:49:55.160Z,23.30
2019-05-19T04:52:26.009Z,20.70
2019-05-19T04:54:56.543Z,20.77
2019-05-19T04:57:27.126Z,19.97
2019-05-19T05:00:04.882Z,21.30
2019-05-19T05:02:35.502Z,20.23
2019-05-19T05:05:06.213Z,20.17
2019-05-19T05:07:36.879Z,20.90
2019-05-19T05:10:07.783Z,19.73
2019-05-19T05:12:41.412Z,17.67
2019-05-19T05:15:16.003Z,20.47
2019-05-19T05:17:46.724Z,18.50
2019-05-19T05:20:17.628Z,18.40
2019-05-19T05:22:48.052Z,18.10
2019-05-19T05:25:18.472Z,18.00
2019-05-19T05:27:49.152Z,19.23
2019-05-19T05:30:19.787Z,19.03
2019-05-19T05:32:50.751Z,18.40
2019-05-19T05:35:23.242Z,19.63
2019-05-19T05:37:53.911Z,19.33
2019-05-19T05:40:24.411Z,17.83
2019-05-19T05:42:55.083Z,20.13
2019-05-19T05:45:28.119Z,19.87
2019-05-19T05:48:01.986Z,19.63
2019-05-19T05:50:32.625Z,18.63
2019-05-19T05:53:05.618Z,18.70
2019-05-19T05:55:36.244Z,18.23
2019-05-19T05:58:07.072Z,19.20
2019-05-19T06:00:37.652Z,20.57
2019-05-19T06:03:09.848Z,18.87
2019-05-19T06:05:40.482Z,18.07
2019-05-19T06:08:11.514Z,18.57
2019-05-19T06:10:45.935Z,19.47
2019-05-19T06:13:24.584Z,18.77
2019-05-19T06:15:55.443Z,18.13
2019-05-19T06:18:26.852Z,19.30
2019-05-19T06:20:58.914Z,18.13
2019-05-19T06:23:29.576Z,18.07
2019-05-19T06:26:00.146Z,18.27
2019-05-19T06:28:36.375Z,19.43
2019-05-19T06:31:07.697Z,18.23
2019-05-19T06:33:41.049Z,18.13
2019-05-19T06:36:12.230Z,17.73
2019-05-19T06:38:43.229Z,17.03
2019-05-19T06:41:16.339Z,16.33
2019-05-19T06:43:48.201Z,17.50
2019-05-19T06:46:20.080Z,16.93
2019-05-19T06:48:53.489Z,17.60
2019-05-19T06:51:27.179Z,16.93
2019-05-19T06:54:00.348Z,16.60
2019-05-19T06:56:30.789Z,16.30
2019-05-19T06:59:06.274Z,16.07
2019-05-19T07:01:37.077Z,14.47
2019-05-19T07:04:08.261Z,16.80
2019-05-19T07:06:39.173Z,15.40
2019-05-19T07:09:11.066Z,14.77
2019-05-19T07:11:44.976Z,13.97
2019-05-19T07:14:16.358Z,13.47
2019-05-19T07:16:47.286Z,13.40
2019-05-19T07:19:32.703Z,13.70
2019-05-19T07:22:03.336Z,13.53
2019-05-19T07:24:34.180Z,12.20
2019-05-19T07:27:05.059Z,12.53
2019-05-19T07:33:33.803Z,12.40
2019-05-19T07:36:09.304Z,11.60
2019-05-19T07:38:40.531Z,13.27
2019-05-19T07:41:11.765Z,12.73
2019-05-19T07:43:42.547Z,12.27
2019-05-19T07:46:13.772Z,12.53
2019-05-19T07:48:44.796Z,12.00
2019-05-19T07:51:15.631Z,12.53
2019-05-19T07:53:46.348Z,12.40
2019-05-19T07:56:17.023Z,12.80
2019-05-19T07:58:47.482Z,12.37
2019-05-19T08:01:18.089Z,12.60
2019-05-19T08:03:48.531Z,13.03
2019-05-19T08:06:19.122Z,12.20
2019-05-19T08:08:49.675Z,12.37
2019-05-19T08:11:20.323Z,12.70
2019-05-19T08:13:50.836Z,12.03
2019-05-19T08:16:22.086Z,12.30
2019-05-19T08:18:52.496Z,12.47
2019-05-19T08:21:23.291Z,12.50
2019-05-19T08:24:00.396Z,12.17
2019-05-19T08:26:26.836Z,12.77
2019-05-19T08:28:57.473Z,12.10
2019-05-19T08:31:28.812Z,11.97
2019-05-19T08:33:59.415Z,11.90
2019-05-19T08:36:30.148Z,11.83
2019-05-19T08:39:00.896Z,12.90
2019-05-19T08:41:33.238Z,12.17
2019-05-19T08:44:03.924Z,12.10
2019-05-19T08:46:34.720Z,12.50
2019-05-19T08:49:05.075Z,11.90
2019-05-19T08:51:35.796Z,12.30
2019-05-19T08:54:14.206Z,11.70
2019-05-19T08:56:40.832Z,11.73
2019-05-19T08:59:11.249Z,11.60
2019-05-19T09:01:41.676Z,11.33
2019-05-19T09:04:12.352Z,10.87
2019-05-19T09:06:42.860Z,12.33
2019-05-19T09:09:13.976Z,11.10
2019-05-19T09:11:44.429Z,11.10
2019-05-19T09:14:15.313Z,10.60
2019-05-19T09:16:46.484Z,10.60
2019-05-19T09:19:17.194Z,10.80
2019-05-19T09:21:47.616Z,10.70
2019-05-19T09:24:30.133Z,11.40
2019-05-19T09:26:50.634Z,11.00
2019-05-19T09:29:21.117Z,10.33
2019-05-19T09:31:56.697Z,10.27
2019-05-19T09:34:27.551Z,10.60
2019-05-19T09:37:01.308Z,9.80
2019-05-19T09:39:42.377Z,10.03
2019-05-19T09:42:23.727Z,9.90
2019-05-19T09:44:54.903Z,9.60
2019-05-19T09:51:24.209Z,9.60
2019-05-19T09:54:16.718Z,9.87
2019-05-19T09:56:50.955Z,9.40
2019-05-19T09:59:28.959Z,10.00
2019-05-19T10:05:10.624Z,9.40
2019-05-19T10:08:10.269Z,9.87
2019-05-19T10:11:26.373Z,11.63
2019-05-19T10:13:58.508Z,13.37
2019-05-19T10:16:29.006Z,11.40
2019-05-19T10:18:59.491Z,12.03
2019-05-19T10:21:32.915Z,12.33
2019-05-19T10:24:09.905Z,12.93
2019-05-19T10:26:41.343Z,13.00
2019-05-19T10:29:11.755Z,11.97
2019-05-19T10:31:43.549Z,12.93
2019-05-19T10:34:14.216Z,12.30
2019-05-19T10:36:46.435Z,13.43
2019-05-19T10:39:16.791Z,12.57
2019-05-19T10:41:48.941Z,12.97
2019-05-19T10:44:19.356Z,12.50
2019-05-19T10:46:49.847Z,12.80
2019-05-19T10:49:20.717Z,13.57
2019-05-19T10:51:51.180Z,11.97
2019-05-19T10:54:21.959Z,12.40
2019-05-19T10:56:52.584Z,12.20
2019-05-19T10:59:23.635Z,11.77
2019-05-19T11:01:57.578Z,11.63
2019-05-19T11:04:28.980Z,11.60
2019-05-19T11:07:07.546Z,12.43
2019-05-19T11:09:39.848Z,12.17
2019-05-19T11:12:12.024Z,11.67
2019-05-19T11:14:45.352Z,11.40
2019-05-19T11:17:16.142Z,11.97
2019-05-19T11:19:49.331Z,11.97
2019-05-19T11:22:20.028Z,12.03
2019-05-19T11:24:51.040Z,11.83
2019-05-19T11:27:21.672Z,12.30
2019-05-19T11:29:52.467Z,12.03
2019-05-19T11:32:23.155Z,11.60
2019-05-19T11:34:53.774Z,11.97
2019-05-19T11:37:24.387Z,11.23
2019-05-19T11:39:54.912Z,11.87
2019-05-19T11:42:25.915Z,11.47
2019-05-19T11:44:56.527Z,11.53
2019-05-19T11:47:26.898Z,10.70
2019-05-19T11:49:57.500Z,11.90
2019-05-19T11:52:27.882Z,12.17
2019-05-19T11:54:58.419Z,11.07
2019-05-19T11:57:29.189Z,10.83
2019-05-19T11:59:59.732Z,10.77
2019-05-19T12:04:59.395Z,11.13
2019-05-19T12:07:30.523Z,10.97
2019-05-19T12:10:00.983Z,10.57
2019-05-19T12:12:31.762Z,10.93
2019-05-19T12:15:02.351Z,10.33
2019-05-19T12:17:34.843Z,9.97
2019-05-19T12:20:05.553Z,10.27
2019-05-19T12:22:36.143Z,9.50
2019-05-19T12:25:06.648Z,9.53
2019-05-19T12:27:37.377Z,9.50
2019-05-19T12:30:08.573Z,10.07
2019-05-19T12:32:39.269Z,9.27
2019-05-19T12:35:09.900Z,9.23
2019-05-19T12:37:41.456Z,9.77
2019-05-19T12:40:12.897Z,9.87
2019-05-19T12:42:43.655Z,10.03
2019-05-19T12:45:14.021Z,8.43
2019-05-19T12:47:44.495Z,10.10
2019-05-19T12:50:15.303Z,9.60
2019-05-19T12:52:45.853Z,9.83
2019-05-19T12:55:16.322Z,9.70
2019-05-19T12:57:47.050Z,9.40
2019-05-19T13:00:17.723Z,9.47
2019-05-19T13:02:48.539Z,9.90
2019-05-19T13:05:18.835Z,10.10
2019-05-19T13:07:49.437Z,9.50
2019-05-19T13:10:20.081Z,10.13
2019-05-19T13:12:50.726Z,9.30
2019-05-19T13:15:21.395Z,8.87
2019-05-19T13:17:52.012Z,9.53
2019-05-19T13:20:23.930Z,9.57
2019-05-19T13:22:56.116Z,9.10
2019-05-19T13:25:26.596Z,9.80
2019-05-19T13:27:57.340Z,8.60
2019-05-19T13:30:28.683Z,8.43
2019-05-19T13:32:59.239Z,8.50
2019-05-19T13:35:29.739Z,7.57
2019-05-19T13:38:00.552Z,7.80
2019-05-19T13:40:31.115Z,7.85
2019-05-19T13:43:01.942Z,7.05
2019-05-19T13:45:32.756Z,7.35
2019-05-19T13:48:03.427Z,7.28
2019-05-19T13:50:33.775Z,7.45
2019-05-19T13:53:04.483Z,7.42
2019-05-19T13:55:34.904Z,6.85
2019-05-19T13:58:05.708Z,7.67
2019-05-19T14:00:36.225Z,6.25
2019-05-19T14:03:08.555Z,6.95
2019-05-19T14:05:40.813Z,6.90
2019-05-19T14:08:11.322Z,6.80
2019-05-19T14:10:41.675Z,6.67
2019-05-19T14:13:12.273Z,6.65
2019-05-19T14:15:42.818Z,6.10
2019-05-19T14:18:13.611Z,6.30
2019-05-19T14:20:44.800Z,6.35
2019-05-19T14:25:44.963Z,6.12
2019-05-19T14:28:16.564Z,5.75
2019-05-19T14:30:47.293Z,6.08
2019-05-19T14:33:17.712Z,5.80
2019-05-19T14:35:48.516Z,6.00
2019-05-19T14:38:19.083Z,6.12
2019-05-19T14:40:49.556Z,5.25
2019-05-19T14:43:20.633Z,5.70
2019-05-19T14:45:51.060Z,5.97
2019-05-19T14:48:21.646Z,5.83
2019-05-19T14:50:53.041Z,6.60
2019-05-19T14:53:26.204Z,6.30
2019-05-19T14:55:56.918Z,6.30
2019-05-19T14:58:28.182Z,6.97
2019-05-19T15:00:58.792Z,6.60
2019-05-19T15:03:29.242Z,6.67
2019-05-19T15:05:59.679Z,7.47
2019-05-19T15:08:30.483Z,7.40
2019-05-19T15:11:01.137Z,6.90
2019-05-19T15:13:31.920Z,6.30
2019-05-19T15:16:02.747Z,6.23
2019-05-19T15:18:33.400Z,5.70
2019-05-19T15:21:03.800Z,5.90
2019-05-19T15:23:34.577Z,5.00
2019-05-19T15:26:04.843Z,5.43
2019-05-19T15:28:35.648Z,5.50
2019-05-19T15:31:06.041Z,5.60
2019-05-19T15:33:38.579Z,5.80
2019-05-19T15:36:08.881Z,7.97
2019-05-19T15:38:39.652Z,5.50
2019-05-19T15:41:10.140Z,5.83
2019-05-19T15:43:41.305Z,5.87
2019-05-19T15:46:11.771Z,5.87
2019-05-19T15:48:43.183Z,6.30
2019-05-19T15:51:14.548Z,6.20
2019-05-19T15:53:45.284Z,5.90
2019-05-19T15:56:15.602Z,11.33
2019-05-19T15:58:46.279Z,20.80
2019-05-19T16:01:16.684Z,7.30
2019-05-19T16:03:47.345Z,7.27
2019-05-19T16:06:19.946Z,6.93
2019-05-19T16:12:02.129Z,29.90
2019-05-19T16:14:34.731Z,7.57
2019-05-19T16:17:05.431Z,8.27
2019-05-19T16:19:38.024Z,7.67
2019-05-19T16:22:08.811Z,7.10
2019-05-19T16:24:39.536Z,6.93
2019-05-19T16:27:12.812Z,6.90
2019-05-19T16:29:42.585Z,7.00
2019-05-19T16:32:13.292Z,8.03
2019-05-19T16:34:44.803Z,14.53
2019-05-19T16:37:15.512Z,6.60
2019-05-19T16:39:48.014Z,7.30
2019-05-19T16:42:18.756Z,6.70
2019-05-19T16:47:35.882Z,6.70
2019-05-19T17:04:13.279Z,7.00
2019-05-19T17:47:26.496Z,6.27
2019-05-19T17:49:56.901Z,7.30
2019-05-19T17:52:27.452Z,7.30
2019-05-19T17:54:58.070Z,7.83
2019-05-19T17:57:29.112Z,6.03
2019-05-19T17:59:59.808Z,4.70
2019-05-19T18:02:30.235Z,3.87
2019-05-19T18:05:00.917Z,3.53
2019-05-19T18:07:32.858Z,2.83
2019-05-19T18:10:03.490Z,2.87
2019-05-19T18:12:36.516Z,2.70
2019-05-19T18:15:07.460Z,2.77
2019-05-19T18:17:38.396Z,2.97
2019-05-19T18:20:22.721Z,3.13
2019-05-19T18:22:42.090Z,3.17
2019-05-19T18:25:14.137Z,3.00
2019-05-19T18:27:44.786Z,2.97
2019-05-19T18:30:15.633Z,3.30
2019-05-19T18:32:47.133Z,3.50
2019-05-19T18:35:17.695Z,3.57
2019-05-19T18:37:48.544Z,4.00
2019-05-19T18:40:19.378Z,3.73
2019-05-19T18:42:49.848Z,3.43
2019-05-19T18:45:20.685Z,3.87
2019-05-19T18:47:51.289Z,4.07
2019-05-19T18:50:21.942Z,3.33
2019-05-19T18:52:52.575Z,3.67
2019-05-19T18:55:23.354Z,3.87
2019-05-19T18:57:54.042Z,3.63
2019-05-19T19:00:35.896Z,3.57
2019-05-19T19:03:07.055Z,3.43
2019-05-19T19:05:41.782Z,3.93
2019-05-19T19:08:12.420Z,4.07
2019-05-19T19:10:43.177Z,3.60
2019-05-19T19:15:44.346Z,3.90
2019-05-19T19:18:15.158Z,4.03
2019-05-19T19:20:45.832Z,4.27
2019-05-19T19:23:16.452Z,4.20
2019-05-19T19:25:47.101Z,4.13
2019-05-19T19:28:18.653Z,4.17
2019-05-19T19:30:49.142Z,3.90
2019-05-19T19:33:19.706Z,4.00
2019-05-19T19:35:50.280Z,4.20
2019-05-19T19:38:20.720Z,3.83
2019-05-19T19:40:54.106Z,4.07
2019-05-19T19:43:23.292Z,4.70
2019-05-19T19:45:53.902Z,4.90
2019-05-19T19:48:24.464Z,4.90
2019-05-19T19:50:55.121Z,4.40
2019-05-19T19:53:25.545Z,4.93
2019-05-19T19:55:56.062Z,4.80
2019-05-19T19:58:26.561Z,4.83
2019-05-19T20:00:57.179Z,4.27
2019-05-19T20:03:27.743Z,4.37
2019-05-19T20:05:58.489Z,4.30
2019-05-19T20:08:28.952Z,4.57
2019-05-19T20:10:59.497Z,4.27
2019-05-19T20:15:59.539Z,4.70
2019-05-19T20:18:30.248Z,4.70
2019-05-19T20:21:00.789Z,4.63
2019-05-19T20:23:31.456Z,4.40
2019-05-19T20:26:02.034Z,4.33
2019-05-19T20:28:32.756Z,4.57
2019-05-19T20:33:35.618Z,4.77
2019-05-19T20:42:28.945Z,4.97
2019-05-19T20:44:59.445Z,5.00
2019-05-19T20:47:30.044Z,4.80
2019-05-19T20:50:00.688Z,5.20
2019-05-19T20:52:31.195Z,4.70
2019-05-19T20:55:03.315Z,4.50
2019-05-19T20:57:34.033Z,4.57
2019-05-19T21:00:04.566Z,4.63
2019-05-19T21:02:36.527Z,5.30
2019-05-19T21:05:07.410Z,4.73
2019-05-19T21:07:38.110Z,5.00
2019-05-19T21:10:10.152Z,5.40
2019-05-19T21:12:40.981Z,5.47
2019-05-19T21:15:11.692Z,5.57
2019-05-19T21:17:42.378Z,5.47
2019-05-19T21:20:14.345Z,5.30
2019-05-19T21:22:44.928Z,5.80
2019-05-19T21:25:15.461Z,5.73
2019-05-19T21:30:15.825Z,5.53
2019-05-19T21:35:16.008Z,5.63
2019-05-19T21:37:46.700Z,5.57
2019-05-19T21:40:17.252Z,5.20
2019-05-19T21:42:51.109Z,6.00
2019-05-19T21:45:21.569Z,5.70
2019-05-19T21:47:52.448Z,5.40
2019-05-19T21:50:23.308Z,6.00
2019-05-19T21:52:53.993Z,6.40
2019-05-19T21:55:25.597Z,5.93
2019-05-19T21:57:56.229Z,6.13
2019-05-19T22:00:29.894Z,5.97
2019-05-19T22:03:00.938Z,6.50
2019-05-19T22:05:31.621Z,6.73
2019-05-19T22:08:20.255Z,6.10
2019-05-19T22:10:51.060Z,6.03
2019-05-19T22:13:21.665Z,6.30
2019-05-19T22:15:52.460Z,6.47
2019-05-19T22:18:23.191Z,6.57
2019-05-19T22:20:54.150Z,6.20
2019-05-19T22:23:24.709Z,6.50
2019-05-19T22:25:55.928Z,6.23
2019-05-19T22:28:26.480Z,6.50
2019-05-19T22:30:56.920Z,6.63
2019-05-19T22:33:27.785Z,6.47
2019-05-19T22:35:58.275Z,6.70
2019-05-19T22:38:28.981Z,6.63
2019-05-19T22:40:59.507Z,6.40
2019-05-19T22:43:30.074Z,6.57
2019-05-19T22:46:00.949Z,6.70
2019-05-19T22:48:31.630Z,6.00
2019-05-19T22:51:02.386Z,6.50
2019-05-19T22:53:33.196Z,6.73
2019-05-19T22:56:03.711Z,6.13
2019-05-19T22:58:34.494Z,6.73
2019-05-19T23:01:05.272Z,6.27
2019-05-19T23:03:36.013Z,6.60
2019-05-19T23:06:06.678Z,6.80
2019-05-19T23:08:37.378Z,7.23
2019-05-19T23:11:07.971Z,6.40
2019-05-19T23:13:38.588Z,7.13
2019-05-19T23:16:08.979Z,6.70
2019-05-19T23:18:39.699Z,6.90
2019-05-19T23:21:10.255Z,6.77
2019-05-19T23:23:40.809Z,6.37
2019-05-19T23:26:11.419Z,6.93
2019-05-19T23:28:42.204Z,6.77
2019-05-19T23:31:12.883Z,6.80
2019-05-19T23:33:43.607Z,6.97
2019-05-19T23:36:14.316Z,7.50
2019-05-19T23:38:45.051Z,7.57
2019-05-19T23:41:15.830Z,7.47
2019-05-19T23:43:46.568Z,7.20
2019-05-19T23:46:17.155Z,7.37
2019-05-19T23:48:47.888Z,7.77
2019-05-19T23:51:18.643Z,7.47
2019-05-19T23:53:49.276Z,7.43
2019-05-19T23:56:19.751Z,7.33
2019-05-19T23:58:50.560Z,6.90
